createdAt,value
2022-11-05T00:00:38.004Z,2.17
2022-11-05T00:03:24.420Z,1.35
2022-11-05T00:06:12.747Z,2.15
2022-11-05T00:09:00.642Z,1.40
2022-11-05T00:11:46.784Z,1.45
2022-11-05T00:14:33.126Z,1.83
2022-11-05T00:17:00.566Z,1.70
2022-11-05T00:19:27.949Z,2.28
2022-11-05T00:22:13.567Z,1.30
2022-11-05T00:24:59.421Z,1.30
2022-11-05T00:27:26.892Z,1.33
2022-11-05T00:29:54.264Z,1.30
2022-11-05T00:32:23.436Z,1.25
2022-11-05T00:34:50.842Z,1.20
2022-11-05T00:37:18.230Z,1.65
2022-11-05T00:39:45.573Z,2.03
2022-11-05T00:42:31.352Z,1.63
2022-11-05T00:45:01.496Z,1.67
2022-11-05T00:47:48.050Z,1.65
2022-11-05T00:50:15.928Z,2.03
2022-11-05T00:53:01.391Z,1.80
2022-11-05T00:55:47.268Z,1.77
2022-11-05T00:58:19.045Z,1.27
2022-11-05T01:00:51.057Z,1.67
2022-11-05T01:03:20.822Z,1.40
2022-11-05T01:05:50.576Z,1.50
2022-11-05T01:08:20.624Z,1.35
2022-11-05T01:10:50.967Z,1.35
2022-11-05T01:13:23.900Z,1.90
2022-11-05T01:15:51.775Z,1.67
2022-11-05T01:18:20.536Z,1.23
2022-11-05T01:20:48.492Z,1.25
2022-11-05T01:23:16.589Z,1.45
2022-11-05T01:25:44.356Z,1.60
2022-11-05T01:28:11.884Z,1.52
2022-11-05T01:30:39.397Z,1.08
2022-11-05T01:33:07.587Z,1.30
2022-11-05T01:35:35.161Z,1.55
2022-11-05T01:38:02.565Z,2.05
2022-11-05T01:40:30.009Z,1.42
2022-11-05T01:42:57.407Z,2.10
2022-11-05T01:45:27.946Z,1.92
2022-11-05T01:47:56.430Z,2.22
2022-11-05T01:50:47.517Z,1.55
2022-11-05T01:53:24.455Z,1.27
2022-11-05T01:56:06.879Z,1.77
2022-11-05T01:59:01.241Z,1.20
2022-11-05T02:01:29.241Z,1.38
2022-11-05T02:04:01.687Z,1.83
2022-11-05T02:06:32.884Z,1.42
2022-11-05T02:11:29.807Z,1.38
2022-11-05T02:13:57.196Z,1.75
2022-11-05T02:16:37.811Z,1.40
2022-11-05T02:19:34.493Z,0.90
2022-11-05T02:22:43.205Z,1.10
2022-11-05T02:25:13.614Z,0.98
2022-11-05T02:27:53.145Z,1.10
2022-11-05T02:30:55.707Z,1.27
2022-11-05T02:33:57.136Z,1.23
2022-11-05T02:39:25.719Z,1.55
2022-11-05T02:42:11.712Z,0.70
2022-11-05T02:44:45.344Z,0.98
2022-11-05T02:47:22.861Z,1.33
2022-11-05T02:50:08.669Z,1.05
2022-11-05T02:52:51.383Z,0.85
2022-11-05T02:55:21.445Z,0.85
2022-11-05T02:57:49.140Z,1.23
2022-11-05T03:00:38.885Z,1.20
2022-11-05T03:03:29.709Z,0.95
2022-11-05T03:06:18.260Z,1.20
2022-11-05T03:09:01.094Z,1.05
2022-11-05T03:11:32.061Z,1.13
2022-11-05T03:14:11.089Z,0.80
2022-11-05T03:16:43.294Z,1.00
2022-11-05T03:19:22.875Z,1.38
2022-11-05T03:22:30.703Z,1.63
2022-11-05T03:25:06.265Z,1.00
2022-11-05T03:27:37.379Z,1.80
2022-11-05T03:32:41.991Z,0.98
2022-11-05T03:35:17.278Z,1.35
2022-11-05T03:37:48.247Z,1.80
2022-11-05T03:40:18.689Z,1.15
2022-11-05T03:42:50.684Z,0.90
2022-11-05T03:45:26.913Z,1.08
2022-11-05T03:48:00.035Z,1.00
2022-11-05T03:50:45.258Z,0.80
2022-11-05T03:53:17.216Z,1.10
2022-11-05T03:56:23.606Z,0.75
2022-11-05T03:58:57.571Z,0.82
2022-11-05T04:01:26.709Z,1.10
2022-11-05T04:03:54.304Z,1.10
2022-11-05T04:06:40.586Z,1.00
2022-11-05T04:09:27.491Z,0.85
2022-11-05T04:12:13.108Z,0.98
2022-11-05T04:14:40.554Z,1.60
2022-11-05T04:17:09.287Z,0.77
2022-11-05T04:20:00.109Z,1.23
2022-11-05T04:22:48.660Z,1.08
2022-11-05T04:25:17.837Z,1.52
2022-11-05T04:27:45.922Z,0.88
2022-11-05T04:30:21.862Z,1.13
2022-11-05T04:33:21.882Z,1.00
2022-11-05T04:35:49.749Z,1.30
2022-11-05T04:38:20.541Z,1.08
2022-11-05T04:40:48.680Z,1.20
2022-11-05T04:43:19.203Z,1.10
2022-11-05T04:45:47.119Z,1.10
2022-11-05T04:48:14.525Z,0.80
2022-11-05T04:50:41.886Z,0.68
2022-11-05T04:53:09.498Z,1.23
2022-11-05T04:55:37.157Z,1.40
2022-11-05T04:58:04.517Z,0.70
2022-11-05T05:00:31.925Z,0.70
2022-11-05T05:02:59.359Z,0.77
2022-11-05T05:05:26.871Z,1.10
2022-11-05T05:07:54.259Z,1.55
2022-11-05T05:10:21.604Z,1.58
2022-11-05T05:12:48.997Z,2.15
2022-11-05T05:15:16.557Z,1.13
2022-11-05T05:17:43.924Z,1.88
2022-11-05T05:20:29.603Z,0.73
2022-11-05T05:22:57.001Z,1.48
2022-11-05T05:25:24.463Z,0.88
2022-11-05T05:27:51.848Z,0.65
2022-11-05T05:30:19.209Z,0.80
2022-11-05T05:32:46.627Z,0.65
2022-11-05T05:35:14.101Z,0.70
2022-11-05T05:37:41.472Z,1.95
2022-11-05T05:40:09.698Z,0.70
2022-11-05T05:42:42.712Z,0.80
2022-11-05T05:45:11.807Z,0.85
2022-11-05T05:47:39.210Z,1.05
2022-11-05T05:50:06.783Z,0.77
2022-11-05T05:52:34.139Z,0.98
2022-11-05T05:55:01.500Z,1.02
2022-11-05T05:57:28.875Z,0.47
2022-11-05T05:59:56.289Z,0.85
2022-11-05T06:02:23.795Z,0.80
2022-11-05T06:04:51.324Z,0.95
2022-11-05T06:07:18.679Z,0.70
2022-11-05T06:09:46.053Z,0.60
2022-11-05T06:12:13.413Z,1.10
2022-11-05T06:14:40.869Z,1.00
2022-11-05T06:17:08.391Z,0.73
2022-11-05T06:19:35.807Z,0.85
2022-11-05T06:22:03.187Z,0.73
2022-11-05T06:24:30.623Z,0.50
2022-11-05T06:26:57.971Z,0.82
2022-11-05T06:29:25.414Z,0.75
2022-11-05T06:31:52.782Z,0.65
2022-11-05T06:34:20.191Z,0.60
2022-11-05T06:36:47.850Z,0.98
2022-11-05T06:39:15.225Z,1.52
2022-11-05T06:42:11.992Z,1.00
2022-11-05T06:44:32.053Z,0.80
2022-11-05T06:47:00.420Z,0.50
2022-11-05T06:49:27.790Z,0.65
2022-11-05T06:51:55.151Z,0.47
2022-11-05T06:54:22.598Z,0.90
2022-11-05T06:56:49.962Z,0.60
2022-11-05T06:59:17.513Z,0.70
2022-11-05T07:01:45.032Z,0.60
2022-11-05T07:04:12.939Z,1.25
2022-11-05T07:06:40.310Z,0.88
2022-11-05T07:09:07.746Z,0.70
2022-11-05T07:11:35.142Z,0.60
2022-11-05T07:14:02.631Z,0.90
2022-11-05T07:16:30.062Z,0.60
2022-11-05T07:18:57.418Z,0.50
2022-11-05T07:21:25.016Z,0.65
2022-11-05T07:23:52.424Z,0.85
2022-11-05T07:26:19.873Z,1.80
2022-11-05T07:28:47.250Z,0.80
2022-11-05T07:31:14.654Z,1.90
2022-11-05T07:33:42.106Z,1.38
2022-11-05T07:36:09.815Z,0.98
2022-11-05T07:38:37.185Z,1.95
2022-11-05T07:41:05.098Z,1.38
2022-11-05T07:43:32.584Z,0.63
2022-11-05T07:46:00.006Z,0.68
2022-11-05T07:48:27.416Z,0.85
2022-11-05T07:50:54.822Z,1.75
2022-11-05T07:53:22.181Z,1.40
2022-11-05T07:55:49.599Z,1.95
2022-11-05T07:58:16.947Z,0.93
2022-11-05T08:00:45.707Z,0.63
2022-11-05T08:03:18.647Z,1.15
2022-11-05T08:05:48.050Z,1.08
2022-11-05T08:08:18.359Z,1.13
2022-11-05T08:10:46.553Z,0.73
2022-11-05T08:13:14.836Z,0.80
2022-11-05T08:15:43.183Z,0.70
2022-11-05T08:18:17.991Z,1.63
2022-11-05T08:20:46.963Z,0.70
2022-11-05T08:23:14.788Z,1.00
2022-11-05T08:25:42.663Z,1.50
2022-11-05T08:28:13.064Z,0.90
2022-11-05T08:30:40.920Z,3.60
2022-11-05T08:33:11.690Z,9.80
2022-11-05T08:35:39.953Z,10.20
2022-11-05T08:38:09.231Z,8.02
2022-11-05T08:40:37.895Z,6.40
2022-11-05T08:43:07.164Z,5.82
2022-11-05T08:45:38.403Z,5.55
2022-11-05T08:48:21.785Z,5.20
2022-11-05T08:50:49.949Z,4.72
2022-11-05T08:53:17.734Z,5.13
2022-11-05T08:55:47.832Z,3.90
2022-11-05T08:58:17.180Z,4.65
2022-11-05T09:00:46.933Z,3.58
2022-11-05T09:03:14.963Z,5.55
2022-11-05T09:05:43.144Z,3.88
2022-11-05T09:08:22.067Z,3.05
2022-11-05T09:10:50.099Z,3.28
2022-11-05T09:13:19.820Z,3.28
2022-11-05T09:15:51.657Z,3.38
2022-11-05T09:18:20.141Z,2.70
2022-11-05T09:20:48.027Z,2.85
2022-11-05T09:23:15.827Z,4.13
2022-11-05T09:25:44.412Z,2.40
2022-11-05T09:28:18.400Z,2.20
2022-11-05T09:30:48.330Z,2.20
2022-11-05T09:33:17.771Z,3.13
2022-11-05T09:35:45.205Z,2.25
2022-11-05T09:38:13.032Z,2.10
2022-11-05T09:40:43.729Z,2.42
2022-11-05T09:43:18.915Z,2.25
2022-11-05T09:45:50.341Z,2.95
2022-11-05T09:48:21.882Z,3.38
2022-11-05T09:50:50.621Z,2.33
2022-11-05T09:53:19.479Z,3.75
2022-11-05T09:55:50.979Z,2.03
2022-11-05T09:58:24.508Z,2.38
2022-11-05T10:00:57.419Z,1.55
2022-11-05T10:03:26.737Z,2.72
2022-11-05T10:06:07.531Z,1.70
2022-11-05T10:08:44.229Z,1.50
2022-11-05T10:11:19.859Z,2.08
2022-11-05T10:14:06.386Z,2.85
2022-11-05T10:16:41.235Z,1.73
2022-11-05T10:19:13.543Z,1.60
2022-11-05T10:24:28.938Z,1.48
2022-11-05T10:26:57.831Z,2.45
2022-11-05T10:29:33.794Z,1.55
2022-11-05T10:32:05.664Z,1.98
2022-11-05T10:34:36.269Z,2.67
2022-11-05T10:37:04.406Z,1.45
2022-11-05T10:39:33.343Z,1.55
2022-11-05T10:42:38.030Z,3.20
2022-11-05T10:45:14.305Z,3.50
2022-11-05T10:47:50.840Z,2.97
2022-11-05T10:50:25.427Z,4.53
2022-11-05T10:52:52.756Z,2.60
2022-11-05T10:55:30.321Z,3.53
2022-11-05T10:58:15.867Z,2.72
2022-11-05T11:00:45.354Z,2.28
2022-11-05T11:03:53.026Z,2.15
2022-11-05T11:06:26.223Z,3.28
2022-11-05T11:08:56.667Z,4.40
2022-11-05T11:11:36.836Z,4.78
2022-11-05T11:14:13.493Z,2.40
2022-11-05T11:16:43.767Z,2.70
2022-11-05T11:19:31.992Z,3.83
2022-11-05T11:22:21.044Z,3.60
2022-11-05T11:24:54.282Z,2.85
2022-11-05T11:27:28.249Z,2.72
2022-11-05T11:30:04.187Z,3.95
2022-11-05T11:32:40.189Z,3.65
2022-11-05T11:35:18.098Z,4.25
2022-11-05T11:37:46.712Z,2.42
2022-11-05T11:40:29.381Z,4.18
2022-11-05T11:43:00.585Z,3.67
2022-11-05T11:45:36.751Z,4.53
2022-11-05T11:48:08.428Z,4.78
2022-11-05T11:50:44.725Z,3.10
2022-11-05T11:53:21.048Z,4.15
2022-11-05T11:56:02.388Z,3.05
2022-11-05T11:59:02.669Z,3.17
2022-11-05T12:01:45.031Z,2.90
2022-11-05T12:04:50.201Z,4.35
2022-11-05T12:07:49.883Z,2.83
2022-11-05T12:10:29.110Z,3.13
2022-11-05T12:13:22.923Z,2.70
2022-11-05T12:16:05.846Z,4.00
2022-11-05T12:18:41.584Z,3.25
2022-11-05T12:21:34.616Z,2.22
2022-11-05T12:24:44.086Z,3.92
2022-11-05T12:27:30.264Z,3.10
2022-11-05T12:30:08.194Z,3.08
2022-11-05T12:32:41.386Z,4.22
2022-11-05T12:35:26.953Z,4.18
2022-11-05T12:38:00.666Z,2.42
2022-11-05T12:41:13.154Z,2.38
2022-11-05T12:43:47.076Z,2.72
2022-11-05T12:46:20.415Z,3.85
2022-11-05T12:48:59.664Z,2.10
2022-11-05T12:51:54.612Z,2.55
2022-11-05T12:54:50.480Z,2.40
2022-11-05T12:57:20.216Z,2.35
2022-11-05T12:59:57.396Z,2.22
2022-11-05T13:02:34.989Z,2.60
2022-11-05T13:05:17.315Z,2.60
2022-11-05T13:08:01.033Z,3.17
2022-11-05T13:10:37.009Z,2.88
2022-11-05T13:13:16.533Z,2.90
2022-11-05T13:15:54.266Z,2.08
2022-11-05T13:18:35.300Z,1.90
2022-11-05T13:21:06.663Z,2.10
2022-11-05T13:23:55.697Z,1.88
2022-11-05T13:26:35.939Z,2.40
2022-11-05T13:29:05.652Z,1.50
2022-11-05T13:31:49.676Z,1.70
2022-11-05T13:34:17.130Z,2.05
2022-11-05T13:37:14.685Z,1.88
2022-11-05T13:39:54.118Z,2.42
2022-11-05T13:42:48.839Z,1.65
2022-11-05T13:45:50.345Z,1.48
2022-11-05T13:48:23.690Z,2.25
2022-11-05T13:51:00.117Z,1.65
2022-11-05T13:54:03.220Z,1.70
2022-11-05T13:56:52.595Z,1.98
2022-11-05T14:00:00.973Z,1.58
2022-11-05T14:02:44.525Z,1.35
2022-11-05T14:05:32.235Z,1.42
2022-11-05T14:08:02.463Z,1.35
2022-11-05T14:10:37.840Z,2.80
2022-11-05T14:13:27.544Z,1.27
2022-11-05T14:16:21.045Z,2.22
2022-11-05T14:19:14.769Z,1.98
2022-11-05T14:21:53.907Z,1.55
2022-11-05T14:24:43.515Z,2.20
2022-11-05T14:27:13.906Z,1.95
2022-11-05T14:29:42.610Z,2.13
2022-11-05T14:32:19.006Z,0.90
2022-11-05T14:35:04.182Z,2.78
2022-11-05T14:37:52.039Z,1.27
2022-11-05T14:40:22.610Z,1.10
2022-11-05T14:42:55.843Z,3.55
2022-11-05T14:45:39.071Z,1.15
2022-11-05T14:48:31.339Z,1.15
2022-11-05T14:50:59.874Z,1.35
2022-11-05T14:53:39.727Z,1.40
2022-11-05T14:56:19.189Z,2.92
2022-11-05T14:58:47.342Z,1.38
2022-11-05T15:01:14.933Z,2.00
2022-11-05T15:03:46.500Z,2.63
2022-11-05T15:06:35.473Z,1.55
2022-11-05T15:09:29.286Z,1.35
2022-11-05T15:11:56.678Z,1.45
2022-11-05T15:14:34.364Z,1.33
2022-11-05T15:17:19.005Z,1.63
2022-11-05T15:19:47.811Z,1.23
2022-11-05T15:22:32.871Z,1.88
2022-11-05T15:25:00.598Z,1.70
2022-11-05T15:27:43.588Z,1.50
2022-11-05T15:30:19.761Z,1.30
2022-11-05T15:32:47.767Z,2.03
2022-11-05T15:35:19.809Z,1.73
2022-11-05T15:37:53.590Z,2.13
2022-11-05T15:40:28.965Z,1.50
2022-11-05T15:43:17.510Z,1.20
2022-11-05T15:45:57.468Z,1.70
2022-11-05T15:48:25.236Z,1.77
2022-11-05T15:50:52.826Z,2.67
2022-11-05T15:54:28.647Z,2.92
2022-11-05T15:56:48.492Z,1.83
2022-11-05T15:59:19.195Z,1.85
2022-11-05T16:01:57.258Z,1.65
2022-11-05T16:04:34.684Z,1.92
2022-11-05T16:07:09.588Z,1.63
2022-11-05T16:09:40.265Z,2.10
2022-11-05T16:12:19.879Z,2.55
2022-11-05T16:14:59.505Z,1.92
2022-11-05T16:17:53.194Z,2.08
2022-11-05T16:20:25.418Z,1.30
2022-11-05T16:22:59.099Z,1.40
2022-11-05T16:25:29.227Z,1.77
2022-11-05T16:27:58.638Z,1.70
2022-11-05T16:30:26.603Z,2.03
2022-11-05T16:32:54.667Z,1.42
2022-11-05T16:35:24.763Z,1.20
2022-11-05T16:37:52.894Z,1.23
2022-11-05T16:40:26.047Z,1.75
2022-11-05T16:42:54.427Z,1.23
2022-11-05T16:45:24.830Z,1.58
2022-11-05T16:47:52.603Z,1.52
2022-11-05T16:50:30.785Z,1.33
2022-11-05T16:52:58.408Z,2.70
2022-11-05T16:55:25.955Z,1.30
2022-11-05T16:57:55.477Z,1.33
2022-11-05T17:00:24.457Z,2.03
2022-11-05T17:02:53.419Z,1.38
2022-11-05T17:05:27.808Z,2.08
2022-11-05T17:07:55.814Z,1.60
2022-11-05T17:10:25.362Z,1.38
2022-11-05T17:12:52.898Z,1.20
2022-11-05T17:15:22.198Z,1.90
2022-11-05T17:17:50.355Z,1.42
2022-11-05T17:20:42.729Z,2.03
2022-11-05T17:23:12.933Z,1.38
2022-11-05T17:25:46.051Z,1.60
2022-11-05T17:28:14.104Z,1.55
2022-11-05T17:30:42.312Z,1.77
2022-11-05T17:33:11.399Z,1.55
2022-11-05T17:35:40.409Z,1.40
2022-11-05T17:38:08.779Z,1.48
2022-11-05T17:40:37.226Z,1.27
2022-11-05T17:43:05.370Z,1.40
2022-11-05T17:45:33.309Z,1.40
2022-11-05T17:48:03.428Z,1.67
2022-11-05T17:50:30.855Z,1.50
2022-11-05T17:52:58.271Z,1.48
2022-11-05T17:55:25.969Z,1.40
2022-11-05T17:57:53.433Z,1.52
2022-11-05T18:00:23.429Z,1.30
2022-11-05T18:02:53.150Z,1.58
2022-11-05T18:05:22.441Z,1.70
2022-11-05T18:07:50.647Z,1.67
2022-11-05T18:10:18.206Z,1.45
2022-11-05T18:12:46.197Z,1.55
2022-11-05T18:15:15.652Z,1.33
2022-11-05T18:17:43.468Z,1.15
2022-11-05T18:20:18.406Z,1.50
2022-11-05T18:22:49.075Z,1.40
2022-11-05T18:25:18.147Z,1.35
2022-11-05T18:27:45.644Z,2.20
2022-11-05T18:30:15.662Z,1.30
2022-11-05T18:32:44.870Z,1.60
2022-11-05T18:35:13.606Z,1.58
2022-11-05T18:37:42.864Z,2.87
2022-11-05T18:40:13.408Z,1.35
2022-11-05T18:42:41.099Z,1.48
2022-11-05T18:45:09.863Z,1.45
2022-11-05T18:47:37.693Z,1.55
2022-11-05T18:50:09.112Z,2.17
2022-11-05T18:52:38.842Z,1.40
2022-11-05T18:55:07.539Z,1.40
2022-11-05T18:57:36.664Z,1.67
2022-11-05T19:00:06.545Z,1.60
2022-11-05T19:02:34.126Z,1.38
2022-11-05T19:07:52.202Z,1.40
2022-11-05T19:10:21.742Z,1.95
2022-11-05T19:12:49.556Z,1.60
2022-11-05T19:15:20.037Z,1.30
2022-11-05T19:17:48.403Z,1.63
2022-11-05T19:20:17.671Z,2.10
2022-11-05T19:22:46.804Z,1.48
2022-11-05T19:25:16.830Z,1.20
2022-11-05T19:27:44.720Z,1.27
2022-11-05T19:30:12.909Z,2.17
2022-11-05T19:35:12.999Z,1.92
2022-11-05T19:37:42.546Z,1.73
2022-11-05T19:40:11.019Z,1.67
2022-11-05T19:42:38.670Z,1.98
2022-11-05T19:45:30.401Z,1.55
2022-11-05T19:47:54.271Z,1.52
2022-11-05T19:50:21.757Z,1.75
2022-11-05T19:52:49.358Z,1.52
2022-11-05T19:55:17.244Z,1.63
2022-11-05T19:57:50.076Z,3.25
2022-11-05T20:00:17.973Z,2.53
2022-11-05T20:02:48.477Z,1.67
2022-11-05T20:05:20.281Z,1.52
2022-11-05T20:07:53.037Z,1.40
2022-11-05T20:10:22.460Z,1.52
2022-11-05T20:12:51.753Z,1.58
2022-11-05T20:15:19.943Z,1.60
2022-11-05T20:17:51.538Z,1.73
2022-11-05T20:20:19.964Z,1.70
2022-11-05T20:22:53.033Z,2.15
2022-11-05T20:25:21.971Z,1.40
2022-11-05T20:27:50.705Z,1.45
2022-11-05T20:30:21.753Z,2.35
2022-11-05T20:32:57.916Z,1.50
2022-11-05T20:35:25.424Z,1.85
2022-11-05T20:37:54.188Z,1.48
2022-11-05T20:40:22.052Z,1.40
2022-11-05T20:42:49.409Z,1.58
2022-11-05T20:45:16.901Z,1.67
2022-11-05T20:47:44.332Z,1.40
2022-11-05T20:50:11.828Z,1.98
2022-11-05T20:52:39.237Z,2.08
2022-11-05T20:55:09.282Z,1.90
2022-11-05T20:57:37.596Z,1.50
2022-11-05T21:00:07.437Z,1.40
2022-11-05T21:02:35.704Z,1.55
2022-11-05T21:05:03.249Z,1.40
2022-11-05T21:07:30.728Z,1.40
2022-11-05T21:09:58.121Z,1.48
2022-11-05T21:12:25.516Z,1.88
2022-11-05T21:14:53.173Z,1.42
2022-11-05T21:17:20.603Z,1.52
2022-11-05T21:19:48.012Z,1.85
2022-11-05T21:22:15.664Z,1.48
2022-11-05T21:24:43.657Z,1.58
2022-11-05T21:27:11.128Z,2.08
2022-11-05T21:29:38.543Z,1.65
2022-11-05T21:32:06.082Z,2.22
2022-11-05T21:34:33.552Z,1.38
2022-11-05T21:37:00.914Z,1.92
2022-11-05T21:39:29.125Z,1.50
2022-11-05T21:41:56.741Z,1.58
2022-11-05T21:44:24.222Z,1.52
2022-11-05T21:46:52.707Z,1.92
2022-11-05T21:49:20.095Z,1.52
2022-11-05T21:52:05.974Z,1.60
2022-11-05T21:54:51.724Z,1.85
2022-11-05T21:57:37.598Z,1.65
2022-11-05T22:00:08.391Z,1.88
2022-11-05T22:02:37.178Z,2.33
2022-11-05T22:05:06.273Z,1.63
2022-11-05T22:07:36.497Z,1.40
2022-11-05T22:10:09.763Z,2.70
2022-11-05T22:12:40.655Z,1.90
2022-11-05T22:15:10.046Z,2.20
2022-11-05T22:17:38.352Z,1.40
2022-11-05T22:20:08.685Z,1.65
2022-11-05T22:22:36.099Z,1.50
2022-11-05T22:25:04.524Z,1.45
2022-11-05T22:27:31.863Z,1.30
2022-11-05T22:29:59.418Z,1.48
2022-11-05T22:32:26.789Z,2.08
2022-11-05T22:34:54.161Z,1.45
2022-11-05T22:37:21.523Z,2.03
2022-11-05T22:39:48.942Z,1.35
2022-11-05T22:42:16.348Z,1.52
2022-11-05T22:44:44.056Z,1.55
2022-11-05T22:47:11.520Z,1.50
2022-11-05T22:49:38.875Z,1.50
2022-11-05T22:52:06.805Z,1.60
2022-11-05T22:54:39.067Z,1.50
2022-11-05T22:57:06.915Z,1.67
2022-11-05T22:59:34.290Z,1.55
2022-11-05T23:02:06.580Z,1.50
2022-11-05T23:04:36.908Z,1.40
2022-11-05T23:07:27.248Z,1.75
2022-11-05T23:10:13.725Z,1.60
2022-11-05T23:12:43.275Z,2.13
2022-11-05T23:15:31.107Z,1.30
2022-11-05T23:18:16.720Z,1.30
2022-11-05T23:21:02.451Z,2.60
2022-11-05T23:23:48.182Z,1.40
2022-11-05T23:26:33.814Z,1.48
2022-11-05T23:29:01.175Z,1.98
2022-11-05T23:31:46.915Z,1.60
2022-11-05T23:34:14.389Z,2.03
2022-11-05T23:36:59.981Z,1.50
2022-11-05T23:39:27.387Z,1.88
2022-11-05T23:42:13.104Z,1.60
2022-11-05T23:44:58.845Z,1.60
2022-11-05T23:47:52.213Z,1.40
2022-11-05T23:50:19.648Z,1.42
2022-11-05T23:52:47.146Z,2.25
2022-11-05T23:55:14.573Z,1.50
2022-11-05T23:57:42.036Z,1.67
